Time;durP1;ratioP1;P1;durP2;ratioP2;P2;SDS_P1;SDS_P2;PMS_P1;PMS_P2;Temp;Humidity;BMP_temperature;BMP_pressure;BME280_temperature;BME280_humidity;BME280_pressure;Samples;Min_cycle;Max_cycle;Signal;HPM_P1;HPM_P2
2022/03/17 00:02:15;;;;;;;;;82.80;71.20;25.50;99.90;;;;;;5020832;28;9418;-66
2022/03/17 00:04:42;;;;;;;;;86.00;80.40;25.40;99.90;;;;;;5020333;28;8809;-65
2022/03/17 00:07:08;;;;;;;;;82.80;72.20;25.40;99.90;;;;;;5020967;28;8759;-66
2022/03/17 00:09:35;;;;;;;;;79.00;68.00;25.40;99.90;;;;;;5019196;28;8762;-65
2022/03/17 00:12:03;;;;;;;;;80.60;69.40;25.50;99.90;;;;;;5020461;28;8787;-66
2022/03/17 00:14:29;;;;;;;;;82.20;73.40;25.50;99.90;;;;;;5018546;28;8767;-66
2022/03/17 00:16:56;;;;;;;;;80.80;71.40;25.60;99.90;;;;;;5035415;28;8771;-66
2022/03/17 00:19:22;;;;;;;;;84.00;74.20;25.60;99.90;;;;;;5020749;28;8759;-66
2022/03/17 00:21:49;;;;;;;;;76.00;62.40;25.70;99.90;;;;;;5020396;28;8769;-66
2022/03/17 00:24:17;;;;;;;;;84.20;72.60;25.70;99.90;;;;;;5035625;28;8771;-66
2022/03/17 00:26:44;;;;;;;;;77.00;64.80;25.50;99.90;;;;;;5034901;28;8783;-66
2022/03/17 00:29:11;;;;;;;;;80.40;68.60;25.50;99.90;;;;;;5034653;28;8860;-66
2022/03/17 00:31:39;;;;;;;;;71.20;53.80;25.50;99.90;;;;;;5018987;28;8763;-66
2022/03/17 00:34:09;;;;;;;;;78.20;65.00;25.50;99.90;;;;;;5019926;28;8770;-66
2022/03/17 00:36:36;;;;;;;;;79.80;65.40;25.50;99.90;;;;;;5034605;28;8751;-66
2022/03/17 00:39:04;;;;;;;;;81.60;71.20;25.60;99.90;;;;;;5033706;28;8794;-66
2022/03/17 00:41:31;;;;;;;;;79.00;70.40;25.70;99.90;;;;;;5032454;28;9424;-66
2022/03/17 00:43:57;;;;;;;;;83.40;70.20;25.70;99.90;;;;;;5018428;28;8986;-66
2022/03/17 00:46:24;;;;;;;;;79.40;66.60;25.70;99.90;;;;;;5016663;28;8755;-65
2022/03/17 00:48:51;;;;;;;;;81.20;70.80;25.80;99.90;;;;;;5018987;28;8838;-66
2022/03/17 00:51:17;;;;;;;;;76.40;67.80;25.80;99.90;;;;;;5017311;28;8763;-66
2022/03/17 00:53:46;;;;;;;;;79.20;68.00;25.90;99.90;;;;;;5016840;28;8763;-66
2022/03/17 00:56:13;;;;;;;;;82.20;73.60;26.00;99.90;;;;;;5033942;28;8910;-67
2022/03/17 00:58:39;;;;;;;;;79.80;70.40;26.10;99.90;;;;;;5018539;28;8783;-67
2022/03/17 01:01:08;;;;;;;;;80.00;73.00;26.10;99.90;;;;;;5017820;28;9424;-66
2022/03/17 01:03:34;;;;;;;;;79.60;69.40;26.20;99.90;;;;;;5033268;28;8832;-67
2022/03/17 01:06:01;;;;;;;;;80.40;69.20;26.20;99.90;;;;;;5016139;28;8763;-70
2022/03/17 01:08:29;;;;;;;;;81.80;70.60;26.20;99.90;;;;;;5016580;28;8775;-70
2022/03/17 01:10:55;;;;;;;;;80.60;69.40;26.40;99.90;;;;;;5033039;28;8798;-69
2022/03/17 01:13:22;;;;;;;;;80.00;71.40;26.40;99.90;;;;;;5024456;28;8778;-69
2022/03/17 01:15:48;;;;;;;;;79.00;66.80;26.40;99.90;;;;;;4998504;28;8893;-71
2022/03/17 01:18:15;;;;;;;;;78.60;66.40;26.50;99.90;;;;;;4996757;28;8849;-71
2022/03/17 01:20:42;;;;;;;;;78.60;65.80;26.60;99.90;;;;;;4981207;28;8746;-71
2022/03/17 01:23:09;;;;;;;;;77.00;67.00;26.60;99.90;;;;;;4998906;28;8780;-71
2022/03/17 01:25:35;;;;;;;;;78.80;70.60;26.70;99.90;;;;;;4996598;28;8742;-70
2022/03/17 01:28:02;;;;;;;;;72.20;56.80;26.80;99.90;;;;;;5004199;28;8886;-69
2022/03/17 01:30:29;;;;;;;;;78.20;68.20;26.90;99.90;;;;;;5016203;28;8913;-71
2022/03/17 01:32:55;;;;;;;;;77.80;67.40;26.90;99.90;;;;;;5016154;28;9408;-69
2022/03/17 01:35:22;;;;;;;;;79.60;68.60;27.00;99.90;;;;;;5017437;28;8797;-67
2022/03/17 01:37:49;;;;;;;;;73.60;60.80;27.10;99.90;;;;;;5017607;28;8747;-69
2022/03/17 01:40:15;;;;;;;;;72.00;58.00;27.10;99.90;;;;;;5018103;28;8778;-69
2022/03/17 01:42:42;;;;;;;;;74.00;58.80;27.20;99.90;;;;;;5012074;28;8777;-69
2022/03/17 01:45:10;;;;;;;;;71.80;56.80;27.30;99.90;;;;;;4964338;28;8758;-69
2022/03/17 01:47:37;;;;;;;;;66.40;52.40;27.30;99.90;;;;;;4980113;28;8801;-69
2022/03/17 01:50:08;;;;;;;;;69.00;53.20;27.40;99.90;;;;;;4981017;28;8777;-69
2022/03/17 01:52:35;;;;;;;;;74.20;57.00;27.40;99.90;;;;;;4998122;28;8769;-70
2022/03/17 01:55:03;;;;;;;;;75.20;58.60;27.60;99.90;;;;;;4997959;28;8785;-71
2022/03/17 01:57:29;;;;;;;;;70.60;56.80;27.70;99.90;;;;;;4981956;28;8793;-69
2022/03/17 01:59:56;;;;;;;;;69.00;54.40;27.90;99.90;;;;;;5019021;28;8789;-69
2022/03/17 02:02:24;;;;;;;;;70.00;52.60;28.00;99.90;;;;;;5016456;28;9397;-70
2022/03/17 02:04:51;;;;;;;;;71.00;54.40;28.10;99.90;;;;;;5015782;28;8759;-71
2022/03/17 02:07:19;;;;;;;;;70.80;57.00;28.20;99.90;;;;;;5016992;28;8746;-71
2022/03/17 02:09:48;;;;;;;;;69.00;55.80;28.20;99.90;;;;;;5032186;28;8755;-70
2022/03/17 02:15:08;;;;;;;;;63.60;50.20;28.30;99.90;;;;;;5011205;28;8769;-70
2022/03/17 02:17:41;;;;;;;;;63.60;51.20;28.50;99.90;;;;;;4979554;28;9449;-70
2022/03/17 02:20:10;;;;;;;;;67.60;52.00;28.60;99.90;;;;;;4997829;28;8803;-69
2022/03/17 02:22:41;;;;;;;;;64.40;49.00;28.70;99.90;;;;;;4995941;28;8800;-70
2022/03/17 02:27:52;;;;;;;;;63.00;49.40;28.90;99.90;;;;;;5001869;28;8827;-71
2022/03/17 02:30:21;;;;;;;;;60.20;47.20;29.10;99.90;;;;;;5014788;28;8771;-69
2022/03/17 02:32:48;;;;;;;;;61.60;48.40;29.30;99.90;;;;;;5031883;28;8794;-72
2022/03/17 02:35:17;;;;;;;;;65.40;52.20;29.40;99.90;;;;;;5031027;28;8779;-69
2022/03/17 02:37:46;;;;;;;;;62.25;47.75;29.40;99.90;;;;;;5014699;28;9709;-69
2022/03/17 02:40:13;;;;;;;;;60.00;48.25;29.50;99.70;;;;;;5015818;28;8894;-70
2022/03/17 02:42:39;;;;;;;;;58.60;47.20;29.50;99.70;;;;;;5015124;28;8817;-70
2022/03/17 02:45:07;;;;;;;;;64.75;49.25;29.70;99.90;;;;;;5014895;28;8929;-70
2022/03/17 02:47:34;;;;;;;;;58.60;46.20;29.90;99.30;;;;;;5015836;28;8802;-69
2022/03/17 02:50:00;;;;;;;;;57.60;45.40;29.80;99.10;;;;;;5016621;28;8783;-70
2022/03/17 02:52:29;;;;;;;;;52.80;44.00;29.60;99.00;;;;;;5031861;28;14503;-70
2022/03/17 02:54:55;;;;;;;;;60.00;46.60;29.70;99.10;;;;;;5000044;28;8759;-70
2022/03/17 02:57:22;;;;;;;;;62.40;49.60;29.70;98.70;;;;;;5013940;28;8766;-70
2022/03/17 02:59:49;;;;;;;;;57.75;47.25;29.60;98.80;;;;;;5012535;28;8778;-70
2022/03/17 03:02:16;;;;;;;;;58.00;46.20;29.60;98.50;;;;;;5029444;28;8805;-70
2022/03/17 03:04:42;;;;;;;;;58.00;45.40;29.60;98.10;;;;;;5014349;28;9176;-69
2022/03/17 03:07:09;;;;;;;;;63.60;48.80;29.60;98.80;;;;;;5014957;28;8829;-69
2022/03/17 03:09:36;;;;;;;;;60.75;46.75;29.70;99.40;;;;;;5013781;28;8824;-69
2022/03/17 03:12:03;;;;;;;;;60.60;48.40;29.70;98.60;;;;;;5012624;28;8852;-69
2022/03/17 03:14:30;;;;;;;;;62.80;48.60;29.80;98.60;;;;;;5012662;28;8872;-69
2022/03/17 03:16:56;;;;;;;;;63.40;49.40;29.90;98.30;;;;;;5029679;28;8739;-69
2022/03/17 03:19:23;;;;;;;;;58.25;46.00;30.00;98.50;;;;;;5016375;28;8751;-69
2022/03/17 03:21:50;;;;;;;;;59.75;47.00;30.00;98.60;;;;;;5016688;28;8743;-69
2022/03/17 03:24:16;;;;;;;;;53.00;40.75;30.10;97.80;;;;;;5031760;28;8770;-70
2022/03/17 03:26:43;;;;;;;;;62.50;49.75;30.10;97.90;;;;;;5031350;28;8755;-69
2022/03/17 03:29:25;;;;;;;;;60.75;47.75;30.10;97.70;;;;;;5031360;28;8763;-69
2022/03/17 03:32:05;;;;;;;;;55.00;44.50;30.10;97.00;;;;;;5016283;28;8940;-69
2022/03/17 03:34:33;;;;;;;;;60.20;47.40;30.10;97.80;;;;;;5015131;28;8731;-69
2022/03/17 03:39:58;;;;;;;;;64.00;48.00;30.20;96.80;;;;;;4982682;28;9502;-69
2022/03/17 03:42:27;;;;;;;;;57.50;46.50;30.30;96.90;;;;;;5014103;28;8755;-69
2022/03/17 03:44:53;;;;;;;;;55.80;45.40;30.30;97.40;;;;;;5016520;28;8783;-71
2022/03/17 03:47:21;;;;;;;;;60.60;49.00;30.40;97.30;;;;;;5016409;28;8789;-69
2022/03/17 03:49:48;;;;;;;;;60.00;47.25;30.50;96.30;;;;;;5016236;28;8881;-70
2022/03/17 03:52:15;;;;;;;;;57.75;46.00;30.60;96.10;;;;;;5015405;28;8890;-69
2022/03/17 03:54:42;;;;;;;;;63.20;48.60;30.70;96.60;;;;;;5016404;28;8810;-70
2022/03/17 03:57:08;;;;;;;;;54.50;45.00;30.80;96.70;;;;;;5032104;28;9428;-70
2022/03/17 03:59:35;;;;;;;;;61.00;46.80;30.90;96.10;;;;;;5014182;28;8787;-70
2022/03/17 04:02:04;;;;;;;;;59.40;48.80;30.80;96.10;;;;;;5015226;28;8759;-70
2022/03/17 04:04:31;;;;;;;;;54.20;43.20;30.80;95.30;;;;;;5016045;28;8861;-70
2022/03/17 04:07:00;;;;;;;;;59.80;47.60;30.90;95.50;;;;;;5016793;28;8858;-69
2022/03/17 04:09:28;;;;;;;;;62.40;49.00;30.70;95.10;;;;;;5030792;28;8762;-69
2022/03/17 04:11:55;;;;;;;;;59.00;46.60;30.70;95.50;;;;;;5030742;28;9436;-70
2022/03/17 04:14:22;;;;;;;;;61.00;48.80;30.80;95.50;;;;;;5030447;28;8994;-69
2022/03/17 04:16:49;;;;;;;;;58.20;46.60;31.00;95.30;;;;;;5014304;28;8864;-69
2022/03/17 04:19:15;;;;;;;;;60.20;47.40;30.90;95.20;;;;;;5014501;28;8727;-69
2022/03/17 04:21:43;;;;;;;;;60.00;45.20;31.00;95.90;;;;;;5015150;28;8759;-69
2022/03/17 04:24:10;;;;;;;;;60.20;47.00;31.10;96.10;;;;;;5029689;28;8778;-70
2022/03/17 04:26:37;;;;;;;;;57.40;46.40;31.30;95.80;;;;;;5030066;28;9054;-69
2022/03/17 04:29:04;;;;;;;;;58.40;46.20;31.40;94.30;;;;;;5017438;28;8765;-69
2022/03/17 04:31:30;;;;;;;;;57.40;47.40;31.40;93.90;;;;;;4997478;28;8769;-69
2022/03/17 04:33:57;;;;;;;;;63.50;48.75;31.50;94.30;;;;;;4999195;28;9391;-70
2022/03/17 04:36:23;;;;;;;;;59.25;46.50;31.60;94.00;;;;;;4997811;28;8777;-69
2022/03/17 04:38:50;;;;;;;;;63.00;48.20;31.70;94.00;;;;;;4997039;28;8845;-70
2022/03/17 04:41:20;;;;;;;;;60.40;48.20;31.70;94.50;;;;;;4997554;28;8729;-69
2022/03/17 04:43:47;;;;;;;;;54.20;42.80;31.70;94.20;;;;;;4994547;28;8913;-69
2022/03/17 04:46:14;;;;;;;;;61.60;47.40;31.70;93.20;;;;;;5020309;28;8735;-69
2022/03/17 04:48:41;;;;;;;;;58.20;47.20;31.80;95.10;;;;;;5018018;28;8731;-69
2022/03/17 04:51:07;;;;;;;;;64.60;48.40;31.90;93.20;;;;;;5019186;28;8782;-69
2022/03/17 04:53:34;;;;;;;;;62.20;47.40;32.00;93.60;;;;;;5019072;28;8731;-68
2022/03/17 04:56:05;;;;;;;;;54.80;44.40;31.80;92.10;;;;;;5019439;28;8748;-69
2022/03/17 04:58:32;;;;;;;;;59.80;47.00;31.80;92.70;;;;;;5011418;28;9970;-69
2022/03/17 05:01:00;;;;;;;;;56.40;45.00;32.00;92.80;;;;;;5031059;28;8813;-69
2022/03/17 05:03:27;;;;;;;;;61.00;47.40;32.30;92.90;;;;;;5016403;28;9551;-69
2022/03/17 05:05:54;;;;;;;;;56.80;45.20;32.10;92.20;;;;;;5033629;28;8809;-69
2022/03/17 05:08:20;;;;;;;;;60.00;47.80;32.20;91.60;;;;;;5032359;28;8797;-68
2022/03/17 05:10:47;;;;;;;;;57.00;45.60;32.30;92.20;;;;;;5031878;28;8868;-68
2022/03/17 05:13:15;;;;;;;;;60.60;47.00;32.30;91.70;;;;;;5018831;28;8782;-69
2022/03/17 05:15:41;;;;;;;;;59.80;46.80;32.30;91.20;;;;;;5016134;28;8800;-69
2022/03/17 05:18:08;;;;;;;;;54.60;43.60;32.30;91.00;;;;;;5015452;28;8941;-69
2022/03/17 05:20:36;;;;;;;;;64.20;49.40;32.30;91.20;;;;;;5016813;28;8771;-68
2022/03/17 05:23:04;;;;;;;;;57.40;46.40;32.30;90.70;;;;;;5018049;28;8779;-69
2022/03/17 05:25:34;;;;;;;;;50.80;40.20;32.50;90.90;;;;;;5017653;28;8770;-69
2022/03/17 05:28:00;;;;;;;;;56.40;44.60;32.60;90.50;;;;;;5027445;28;8829;-69
2022/03/17 05:30:27;;;;;;;;;60.00;46.75;32.70;90.10;;;;;;4998612;28;8835;-69
2022/03/17 05:32:54;;;;;;;;;57.60;44.20;32.80;90.20;;;;;;4998626;28;8785;-68
2022/03/17 05:35:20;;;;;;;;;57.00;44.40;32.90;90.90;;;;;;4998450;28;8781;-68
2022/03/17 05:37:48;;;;;;;;;58.60;45.60;33.00;91.10;;;;;;4980010;28;8864;-69
2022/03/17 05:40:16;;;;;;;;;58.20;46.00;33.00;90.40;;;;;;4996593;28;8757;-69
2022/03/17 05:42:43;;;;;;;;;52.00;42.20;33.00;88.80;;;;;;5000140;28;8783;-68
2022/03/17 05:45:11;;;;;;;;;55.40;45.00;33.10;88.30;;;;;;5016219;28;8897;-68
2022/03/17 05:47:42;;;;;;;;;56.50;44.75;33.10;87.30;;;;;;5032255;28;8825;-69
2022/03/17 05:50:11;;;;;;;;;60.80;48.40;33.10;87.10;;;;;;5015880;28;8786;-69
2022/03/17 05:52:42;;;;;;;;;60.60;46.40;33.00;87.10;;;;;;5014275;28;8790;-68
2022/03/17 05:55:09;;;;;;;;;60.00;47.20;33.00;86.60;;;;;;5031286;28;8778;-69
2022/03/17 05:57:40;;;;;;;;;58.40;48.20;33.00;86.60;;;;;;5030400;28;8787;-69
2022/03/17 06:00:08;;;;;;;;;60.00;48.25;33.00;87.30;;;;;;5015302;28;8893;-70
2022/03/17 06:02:35;;;;;;;;;59.40;46.40;33.20;88.10;;;;;;5031404;28;9072;-68
2022/03/17 06:05:03;;;;;;;;;56.60;43.80;33.40;88.70;;;;;;4999107;28;8779;-69
2022/03/17 06:07:36;;;;;;;;;49.80;42.60;33.50;87.60;;;;;;5015603;28;8748;-66
2022/03/17 06:10:07;;;;;;;;;55.20;44.60;33.50;86.10;;;;;;5017760;28;8769;-69
2022/03/17 06:12:34;;;;;;;;;62.60;47.20;34.10;84.40;;;;;;5016962;28;9435;-66
2022/03/17 06:15:02;;;;;;;;;60.20;44.20;34.20;86.50;;;;;;5017581;28;8755;-63
2022/03/17 06:17:39;;;;;;;;;55.80;45.00;;;;;;;;5015752;28;8779;-61
2022/03/17 06:20:07;;;;;;;;;54.20;43.20;35.10;81.80;;;;;;5032592;28;9477;-63
2022/03/17 06:22:34;;;;;;;;;48.40;40.40;35.60;76.70;;;;;;5015821;28;8809;-62
2022/03/17 06:25:00;;;;;;;;;57.60;45.00;35.80;75.80;;;;;;5016824;28;8719;-62
2022/03/17 06:27:27;;;;;;;;;52.40;42.40;35.30;77.70;;;;;;5016799;28;8791;-60
2022/03/17 06:29:54;;;;;;;;;52.80;43.00;35.40;77.10;;;;;;5017923;28;8763;-59
2022/03/17 06:32:20;;;;;;;;;56.60;45.00;35.70;75.40;;;;;;5017528;28;8758;-61
2022/03/17 06:34:47;;;;;;;;;53.40;44.00;34.90;78.40;;;;;;5016579;28;9393;-61
2022/03/17 06:37:13;;;;;;;;;59.20;45.20;34.50;78.00;;;;;;5017503;28;8786;-63
2022/03/17 06:39:40;;;;;;;;;54.25;43.50;34.70;79.70;;;;;;5017115;28;8755;-61
2022/03/17 06:42:07;;;;;;;;;56.40;44.80;34.60;80.40;;;;;;5017327;28;8739;-61
2022/03/17 06:44:34;;;;;;;;;53.80;42.40;34.50;81.20;;;;;;5016405;28;8771;-61
2022/03/17 06:47:00;;;;;;;;;50.60;40.00;34.60;81.80;;;;;;5032092;28;8766;-62
2022/03/17 06:49:27;;;;;;;;;57.40;43.60;34.90;78.10;;;;;;5016793;28;8732;-61
2022/03/17 06:51:53;;;;;;;;;61.20;47.20;35.10;73.10;;;;;;5017236;28;8758;-62
2022/03/17 06:54:20;;;;;;;;;58.20;45.60;35.70;75.20;;;;;;5015139;28;9515;-61
2022/03/17 06:56:47;;;;;;;;;53.00;44.00;35.90;75.40;;;;;;5017097;28;8873;-62
2022/03/17 06:59:13;;;;;;;;;53.40;44.80;35.70;75.40;;;;;;5016581;28;8803;-66
2022/03/17 07:01:40;;;;;;;;;56.20;44.00;35.70;76.50;;;;;;5016751;28;8786;-65
2022/03/17 07:04:07;;;;;;;;;57.80;45.00;35.40;74.30;;;;;;5016588;28;9432;-66
2022/03/17 07:06:33;;;;;;;;;55.50;44.00;35.30;76.60;;;;;;5031833;28;8755;-66
2022/03/17 07:09:00;;;;;;;;;54.40;43.20;35.30;75.00;;;;;;5017147;28;8747;-66
2022/03/17 07:11:26;;;;;;;;;50.60;42.40;35.30;75.20;;;;;;5016668;28;8739;-67
2022/03/17 07:13:53;;;;;;;;;53.00;43.20;35.30;74.90;;;;;;5014599;28;8841;-66
2022/03/17 07:16:19;;;;;;;;;55.60;44.00;35.30;74.70;;;;;;5032714;28;8723;-66
2022/03/17 07:18:46;;;;;;;;;56.40;44.60;35.40;74.50;;;;;;5016765;28;9337;-66
2022/03/17 07:21:13;;;;;;;;;54.60;43.40;35.30;75.10;;;;;;5032102;28;8773;-66
2022/03/17 07:23:39;;;;;;;;;51.80;41.20;35.30;74.20;;;;;;5031527;28;8782;-66
2022/03/17 07:26:12;;;;;;;;;55.60;43.20;35.20;74.40;;;;;;5016951;28;8751;-66
2022/03/17 07:28:38;;;;;;;;;52.00;42.50;35.20;74.10;;;;;;5016264;28;10199;-66
2022/03/17 07:31:05;;;;;;;;;52.50;43.00;35.20;74.60;;;;;;5015919;28;8759;-66
2022/03/17 07:33:34;;;;;;;;;56.80;45.60;35.30;72.70;;;;;;5014972;28;8789;-65
2022/03/17 07:36:03;;;;;;;;;51.80;42.60;35.30;72.30;;;;;;5016522;28;8767;-65
2022/03/17 07:38:30;;;;;;;;;52.20;42.20;35.30;72.60;;;;;;5031171;28;8815;-64
2022/03/17 07:40:56;;;;;;;;;52.80;42.00;35.20;71.90;;;;;;5031739;28;8849;-64
2022/03/17 07:43:23;;;;;;;;;50.00;38.50;35.20;72.10;;;;;;5017388;28;8767;-65
2022/03/17 07:45:52;;;;;;;;;48.00;39.25;35.30;72.50;;;;;;5015328;28;9710;-65
2022/03/17 07:48:19;;;;;;;;;44.25;38.25;35.40;72.20;;;;;;5015199;28;8771;-65
2022/03/17 07:50:46;;;;;;;;;47.75;39.50;35.40;70.70;;;;;;5016230;28;8783;-65
2022/03/17 07:53:12;;;;;;;;;45.20;38.40;35.40;70.80;;;;;;5016068;28;8821;-66
2022/03/17 07:55:39;;;;;;;;;50.60;40.60;35.30;69.40;;;;;;5030784;28;8763;-66
2022/03/17 07:58:06;;;;;;;;;51.00;42.00;35.20;69.50;;;;;;5008335;28;8790;-66
2022/03/17 08:00:33;;;;;;;;;50.80;42.40;35.20;68.50;;;;;;4979086;28;8754;-65
2022/03/17 08:03:01;;;;;;;;;49.50;40.25;35.20;69.50;;;;;;4997653;28;8766;-66
2022/03/17 08:05:28;;;;;;;;;52.00;42.25;35.30;69.70;;;;;;4998951;28;8797;-66
2022/03/17 08:07:55;;;;;;;;;45.25;39.00;35.30;69.20;;;;;;4999472;28;8796;-66
2022/03/17 08:10:21;;;;;;;;;52.20;43.00;35.40;68.40;;;;;;5000452;28;8790;-65
2022/03/17 08:12:48;;;;;;;;;49.25;39.00;35.20;70.80;;;;;;5004573;28;8783;-66
2022/03/17 08:15:15;;;;;;;;;49.50;38.75;35.30;69.60;;;;;;5009279;28;8792;-66
2022/03/17 08:17:42;;;;;;;;;46.75;37.00;35.30;70.50;;;;;;5016765;28;8872;-65
2022/03/17 08:20:09;;;;;;;;;51.00;40.75;35.40;68.30;;;;;;5020030;28;8783;-65
2022/03/17 08:22:36;;;;;;;;;52.00;41.00;35.40;69.40;;;;;;5018432;28;8743;-65
2022/03/17 08:25:03;;;;;;;;;47.75;39.50;35.40;68.60;;;;;;5019970;28;8751;-66
2022/03/17 08:27:30;;;;;;;;;47.50;39.00;35.40;68.70;;;;;;5019476;28;8822;-66
2022/03/17 08:29:57;;;;;;;;;48.00;39.00;35.50;67.80;;;;;;5019663;28;8790;-66
2022/03/17 08:32:23;;;;;;;;;41.75;36.25;35.50;67.50;;;;;;5019356;28;8759;-65
2022/03/17 08:34:50;;;;;;;;;46.25;38.25;35.40;67.50;;;;;;5034365;28;8767;-66
2022/03/17 08:37:17;;;;;;;;;40.75;33.25;35.50;64.80;;;;;;5019933;28;8747;-64
2022/03/17 08:39:43;;;;;;;;;47.00;39.00;35.60;65.10;;;;;;5035354;28;9475;-66
2022/03/17 08:42:10;;;;;;;;;46.00;39.00;35.80;65.80;;;;;;5019990;28;8754;-67
2022/03/17 08:44:36;;;;;;;;;44.50;34.00;36.10;64.60;;;;;;5018174;28;8759;-65
2022/03/17 08:49:48;;;;;;;;;44.50;36.25;35.90;65.30;;;;;;5032041;28;8759;-67
2022/03/17 08:52:15;;;;;;;;;41.50;35.25;36.00;64.30;;;;;;5018297;28;8770;-66
2022/03/17 08:54:44;;;;;;;;;29.25;28.00;36.70;64.20;;;;;;5017753;28;8841;-69
2022/03/17 08:57:11;;;;;;;;;43.50;35.75;36.90;64.20;;;;;;5019693;28;8755;-67
2022/03/17 08:59:37;;;;;;;;;43.25;36.25;36.70;64.60;;;;;;5018871;28;8794;-68
2022/03/17 09:02:10;;;;;;;;;40.75;33.50;36.70;63.40;;;;;;5018030;28;8755;-68
2022/03/17 09:04:40;;;;;;;;;45.00;38.25;36.60;63.20;;;;;;5017778;28;8825;-65
2022/03/17 09:07:06;;;;;;;;;43.00;34.25;36.50;64.40;;;;;;5035421;28;8743;-66
2022/03/17 09:09:34;;;;;;;;;42.75;35.00;36.40;63.30;;;;;;5010906;28;9086;-66
2022/03/17 09:12:05;;;;;;;;;41.00;34.25;36.50;64.00;;;;;;5018542;28;8747;-66
2022/03/17 09:14:39;;;;;;;;;44.25;36.25;36.20;66.20;;;;;;5018009;28;8775;-65
2022/03/17 09:17:06;;;;;;;;;43.50;37.00;36.30;65.00;;;;;;5018969;28;8743;-65
2022/03/17 09:19:33;;;;;;;;;49.40;40.00;36.10;65.00;;;;;;5016965;28;8755;-65
2022/03/17 09:21:59;;;;;;;;;78.20;73.60;35.70;66.80;;;;;;5019721;28;8818;-66
2022/03/17 09:24:30;;;;;;;;;54.60;44.80;35.30;66.90;;;;;;5016948;28;8739;-66
2022/03/17 09:26:57;;;;;;;;;56.20;46.00;35.10;69.90;;;;;;5018978;28;8743;-66
2022/03/17 09:29:24;;;;;;;;;64.00;51.80;35.20;70.00;;;;;;5018345;28;8766;-65
2022/03/17 09:31:52;;;;;;;;;53.80;42.60;35.40;68.30;;;;;;5033389;28;8766;-66
2022/03/17 09:34:19;;;;;;;;;52.60;44.20;36.00;65.80;;;;;;5034490;28;8727;-66
2022/03/17 09:36:45;;;;;;;;;50.00;38.50;35.90;64.40;;;;;;5018317;28;8770;-66
2022/03/17 09:41:57;;;;;;;;;44.50;37.00;36.10;67.90;;;;;;5031406;28;8743;-66
2022/03/17 09:44:24;;;;;;;;;51.25;41.50;35.90;69.40;;;;;;5033759;28;8746;-65
2022/03/17 09:46:51;;;;;;;;;48.00;40.00;35.70;67.70;;;;;;5033700;28;8777;-66
2022/03/17 09:49:17;;;;;;;;;72.20;61.00;35.90;67.50;;;;;;5034380;28;8735;-66
2022/03/17 09:51:45;;;;;;;;;41.75;31.75;35.70;66.20;;;;;;5016368;28;8866;-65
2022/03/17 09:54:12;;;;;;;;;73.60;62.80;35.50;67.40;;;;;;5018058;28;9434;-66
2022/03/17 09:56:38;;;;;;;;;47.25;38.75;35.40;66.10;;;;;;5017820;28;8751;-66
2022/03/17 09:59:06;;;;;;;;;51.20;42.00;35.50;68.00;;;;;;5018319;28;8755;-66
2022/03/17 10:01:33;;;;;;;;;54.25;44.25;35.30;69.20;;;;;;5018268;28;8731;-66
2022/03/17 10:04:00;;;;;;;;;47.60;40.40;34.90;70.00;;;;;;5018951;28;8913;-66
2022/03/17 10:06:28;;;;;;;;;47.25;41.00;35.20;69.50;;;;;;5016642;28;8783;-65
2022/03/17 10:08:55;;;;;;;;;42.20;35.80;35.20;72.00;;;;;;5017159;28;8790;-67
2022/03/17 10:11:32;;;;;;;;;46.25;39.00;35.30;69.60;;;;;;5032778;28;9062;-65
2022/03/17 10:13:59;;;;;;;;;54.00;43.20;35.00;71.80;;;;;;5017708;28;8786;-66
2022/03/17 10:16:27;;;;;;;;;52.25;41.00;35.20;71.50;;;;;;5017888;28;8759;-62
2022/03/17 10:18:56;;;;;;;;;51.50;40.50;35.10;71.00;;;;;;5033904;28;8828;-64
2022/03/17 10:21:27;;;;;;;;;30.50;28.50;34.60;73.20;;;;;;5017893;28;9045;-63
2022/03/17 10:24:04;;;;;;;;;49.75;40.25;34.30;77.20;;;;;;5017927;28;8767;-64
2022/03/17 10:26:47;;;;;;;;;48.75;40.00;34.00;76.80;;;;;;5016685;28;9235;-64
2022/03/17 10:29:20;;;;;;;;;40.25;35.00;33.80;78.30;;;;;;5017758;28;9412;-64
2022/03/17 10:32:13;;;;;;;;;56.60;46.20;33.70;76.90;;;;;;5016514;28;8781;-66
2022/03/17 10:34:49;;;;;;;;;63.00;51.20;33.80;71.20;;;;;;5017837;28;8747;-66
2022/03/17 10:37:17;;;;;;;;;51.40;41.80;33.90;69.80;;;;;;5018276;28;9428;-66
2022/03/17 10:39:45;;;;;;;;;50.25;40.25;33.90;75.10;;;;;;5017575;28;8731;-66
2022/03/17 10:42:21;;;;;;;;;51.50;40.50;33.90;76.80;;;;;;5021361;28;9442;-66
2022/03/17 10:44:52;;;;;;;;;53.80;44.40;34.00;79.10;;;;;;4998715;28;8742;-66
2022/03/17 10:47:38;;;;;;;;;50.75;41.25;34.00;79.70;;;;;;4987984;28;8779;-65
2022/03/17 10:50:22;;;;;;;;;55.20;43.80;33.90;81.40;;;;;;4990731;28;8742;-67
2022/03/17 10:52:52;;;;;;;;;53.00;41.00;33.80;76.30;;;;;;5011975;28;8883;-66
2022/03/17 10:55:31;;;;;;;;;52.40;42.00;33.80;78.80;;;;;;4998108;28;8764;-65
2022/03/17 10:58:19;;;;;;;;;50.00;41.60;33.80;75.50;;;;;;5003137;28;9419;-66
2022/03/17 11:00:53;;;;;;;;;51.00;40.75;33.70;80.00;;;;;;5016153;28;8750;-66
2022/03/17 11:03:21;;;;;;;;;52.00;43.50;33.50;83.90;;;;;;5017188;28;8763;-66
2022/03/17 11:05:50;;;;;;;;;57.60;45.80;33.40;81.60;;;;;;5032361;28;8777;-66
2022/03/17 11:08:18;;;;;;;;;56.50;44.25;33.40;78.60;;;;;;5031906;28;8798;-66
2022/03/17 11:10:49;;;;;;;;;49.75;41.75;33.40;78.80;;;;;;5016790;28;8841;-67
2022/03/17 11:13:16;;;;;;;;;55.00;45.75;33.30;82.60;;;;;;5017687;28;9416;-66
2022/03/17 11:15:56;;;;;;;;;54.20;43.00;33.20;84.40;;;;;;5032160;28;8841;-66
2022/03/17 11:18:22;;;;;;;;;53.25;43.50;33.20;82.00;;;;;;5030819;28;8791;-66
2022/03/17 11:20:49;;;;;;;;;56.00;44.50;33.20;83.80;;;;;;5015754;28;8976;-67
2022/03/17 11:23:20;;;;;;;;;51.50;43.50;33.10;82.30;;;;;;5015486;28;8771;-66
2022/03/17 11:25:58;;;;;;;;;53.50;43.00;33.20;82.20;;;;;;5016654;28;9015;-66
2022/03/17 11:28:41;;;;;;;;;49.25;41.75;33.20;83.40;;;;;;5022572;28;8899;-63
2022/03/17 11:31:19;;;;;;;;;52.00;41.80;33.10;84.00;;;;;;4997712;28;8766;-67
2022/03/17 11:33:46;;;;;;;;;57.40;46.80;33.00;85.80;;;;;;4995948;28;8774;-66
2022/03/17 11:36:24;;;;;;;;;58.60;46.20;32.80;85.30;;;;;;4997199;28;9275;-66
2022/03/17 11:39:00;;;;;;;;;54.60;43.40;32.70;85.10;;;;;;4997200;28;8790;-66
2022/03/17 11:41:27;;;;;;;;;51.40;40.00;32.70;84.30;;;;;;4997163;28;9443;-66
2022/03/17 11:43:54;;;;;;;;;57.40;45.20;32.60;85.50;;;;;;5009883;28;8767;-67
2022/03/17 11:46:25;;;;;;;;;55.80;46.20;32.60;86.70;;;;;;5016665;28;8873;-66
2022/03/17 11:48:56;;;;;;;;;57.20;45.60;32.50;87.90;;;;;;5017283;28;8739;-66
2022/03/17 11:51:23;;;;;;;;;61.80;47.40;32.40;87.80;;;;;;5030833;28;8771;-66
2022/03/17 11:53:55;;;;;;;;;54.00;44.00;32.40;89.20;;;;;;5032339;28;8805;-66
2022/03/17 11:56:40;;;;;;;;;58.75;47.00;32.20;92.10;;;;;;5016582;28;8868;-66
2022/03/17 11:59:07;;;;;;;;;56.20;46.00;31.80;91.30;;;;;;5016988;28;8766;-66
2022/03/17 12:01:35;;;;;;;;;62.80;51.20;31.50;86.40;;;;;;5031263;28;8743;-66
2022/03/17 12:04:04;;;;;;;;;69.60;52.40;31.40;83.50;;;;;;5016985;28;8755;-66
2022/03/17 12:06:31;;;;;;;;;61.00;50.00;31.40;82.10;;;;;;5016127;28;8779;-66
2022/03/17 12:09:10;;;;;;;;;68.60;54.20;31.30;80.60;;;;;;5031628;28;8751;-65
2022/03/17 12:11:49;;;;;;;;;68.00;54.40;31.20;80.10;;;;;;5016004;28;8814;-65
2022/03/17 12:14:18;;;;;;;;;68.00;52.80;31.20;79.40;;;;;;5016702;28;8782;-65
2022/03/17 12:16:55;;;;;;;;;62.60;49.80;31.10;78.60;;;;;;5016552;28;8802;-65
2022/03/17 12:19:40;;;;;;;;;66.60;54.00;31.00;79.60;;;;;;5032539;28;8791;-65
2022/03/17 12:22:20;;;;;;;;;69.20;54.20;31.00;79.10;;;;;;5016003;28;8735;-65
2022/03/17 12:24:52;;;;;;;;;65.80;52.00;31.00;78.00;;;;;;5016491;28;8972;-65
2022/03/17 12:27:22;;;;;;;;;63.60;51.40;31.00;78.50;;;;;;5031620;28;8795;-64
2022/03/17 12:30:01;;;;;;;;;65.40;53.60;30.90;78.10;;;;;;4997540;28;8782;-65
2022/03/17 12:32:39;;;;;;;;;68.60;55.20;30.90;78.50;;;;;;4997251;28;8808;-65
2022/03/17 12:35:08;;;;;;;;;65.00;52.60;30.90;78.10;;;;;;5011722;28;8776;-65
2022/03/17 12:37:35;;;;;;;;;63.80;51.20;30.90;78.30;;;;;;4996746;28;8749;-65
2022/03/17 12:40:05;;;;;;;;;64.40;52.20;30.90;77.40;;;;;;5012293;28;8809;-66
2022/03/17 12:42:37;;;;;;;;;66.60;51.20;30.90;78.00;;;;;;5011769;28;8790;-65
2022/03/17 12:45:11;;;;;;;;;62.00;49.40;30.80;77.20;;;;;;5016132;28;8778;-65
2022/03/17 12:47:40;;;;;;;;;61.60;50.20;30.90;77.80;;;;;;5016200;28;8805;-65
2022/03/17 12:50:08;;;;;;;;;64.40;50.40;30.90;77.70;;;;;;5032954;28;8758;-65
2022/03/17 12:52:36;;;;;;;;;64.00;50.20;30.90;78.50;;;;;;5017755;28;8755;-65
2022/03/17 12:55:04;;;;;;;;;65.60;52.40;30.90;78.10;;;;;;5035264;28;8867;-65
2022/03/17 12:57:32;;;;;;;;;67.80;55.00;30.90;77.70;;;;;;5019503;28;8779;-66
2022/03/17 12:59:59;;;;;;;;;67.40;52.20;30.80;78.50;;;;;;5019648;28;8771;-66